sensor_id;sensor_type;location;lat;lon;timestamp;temperature;humidity
10247;DHT22;5168;47.854;7.944;2023-02-28T00:00:17;-5.20;99.90
10247;DHT22;5168;47.854;7.944;2023-02-28T00:02:44;-5.30;99.90
10247;DHT22;5168;47.854;7.944;2023-02-28T00:05:13;-5.50;99.90
10247;DHT22;5168;47.854;7.944;2023-02-28T00:07:39;-5.90;99.90
10247;DHT22;5168;47.854;7.944;2023-02-28T00:10:06;-5.50;99.90
10247;DHT22;5168;47.854;7.944;2023-02-28T00:12:33;-5.50;99.90
10247;DHT22;5168;47.854;7.944;2023-02-28T00:14:59;-5.50;99.90
10247;DHT22;5168;47.854;7.944;2023-02-28T00:22:20;-5.40;99.90
10247;DHT22;5168;47.854;7.944;2023-02-28T00:24:46;-5.30;99.90
10247;DHT22;5168;47.854;7.944;2023-02-28T00:27:12;-5.40;99.90
10247;DHT22;5168;47.854;7.944;2023-02-28T00:29:38;-5.20;99.90
10247;DHT22;5168;47.854;7.944;2023-02-28T00:32:05;-5.30;99.90
10247;DHT22;5168;47.854;7.944;2023-02-28T00:34:31;-5.30;99.90
10247;DHT22;5168;47.854;7.944;2023-02-28T00:37:08;-4.40;99.90
10247;DHT22;5168;47.854;7.944;2023-02-28T00:39:40;-5.40;99.90
10247;DHT22;5168;47.854;7.944;2023-02-28T00:42:06;-5.60;99.90
10247;DHT22;5168;47.854;7.944;2023-02-28T00:46:59;-5.70;99.90
10247;DHT22;5168;47.854;7.944;2023-02-28T00:49:25;-5.40;99.90
10247;DHT22;5168;47.854;7.944;2023-02-28T00:56:43;-5.60;99.90
10247;DHT22;5168;47.854;7.944;2023-02-28T01:01:35;-5.40;99.90
10247;DHT22;5168;47.854;7.944;2023-02-28T01:04:00;-5.40;99.90
10247;DHT22;5168;47.854;7.944;2023-02-28T01:06:26;-5.50;99.90
10247;DHT22;5168;47.854;7.944;2023-02-28T01:11:18;-5.60;99.90
10247;DHT22;5168;47.854;7.944;2023-02-28T01:13:45;-5.50;99.90
10247;DHT22;5168;47.854;7.944;2023-02-28T01:16:11;-5.60;99.90
10247;DHT22;5168;47.854;7.944;2023-02-28T01:18:38;-5.70;99.90
10247;DHT22;5168;47.854;7.944;2023-02-28T01:21:09;-4.90;99.90
10247;DHT22;5168;47.854;7.944;2023-02-28T01:23:35;-5.50;99.90
10247;DHT22;5168;47.854;7.944;2023-02-28T01:26:15;-5.40;99.90
10247;DHT22;5168;47.854;7.944;2023-02-28T01:31:08;-5.40;99.90
10247;DHT22;5168;47.854;7.944;2023-02-28T01:33:34;-5.30;99.90
10247;DHT22;5168;47.854;7.944;2023-02-28T01:36:01;-5.30;99.90
10247;DHT22;5168;47.854;7.944;2023-02-28T01:40:53;-5.20;99.90
10247;DHT22;5168;47.854;7.944;2023-02-28T01:43:31;-5.30;99.90
10247;DHT22;5168;47.854;7.944;2023-02-28T01:45:58;-5.40;99.90
10247;DHT22;5168;47.854;7.944;2023-02-28T01:48:31;-5.40;99.90
10247;DHT22;5168;47.854;7.944;2023-02-28T01:51:05;-5.50;99.90
10247;DHT22;5168;47.854;7.944;2023-02-28T01:53:42;-5.40;99.90
10247;DHT22;5168;47.854;7.944;2023-02-28T01:56:11;-5.50;99.90
10247;DHT22;5168;47.854;7.944;2023-02-28T01:58:37;-5.40;99.90
10247;DHT22;5168;47.854;7.944;2023-02-28T02:01:03;-6.00;99.90
10247;DHT22;5168;47.854;7.944;2023-02-28T02:03:30;-5.30;99.90
10247;DHT22;5168;47.854;7.944;2023-02-28T02:08:27;-5.50;99.90
10247;DHT22;5168;47.854;7.944;2023-02-28T02:11:01;-5.40;99.90
10247;DHT22;5168;47.854;7.944;2023-02-28T02:19:14;-5.50;99.90
10247;DHT22;5168;47.854;7.944;2023-02-28T02:37:52;-5.30;99.90
10247;DHT22;5168;47.854;7.944;2023-02-28T02:40:27;-5.30;99.90
10247;DHT22;5168;47.854;7.944;2023-02-28T02:43:00;-5.70;99.90
10247;DHT22;5168;47.854;7.944;2023-02-28T02:48:40;-5.70;99.90
10247;DHT22;5168;47.854;7.944;2023-02-28T02:51:11;-5.40;99.90
10247;DHT22;5168;47.854;7.944;2023-02-28T02:53:47;-5.40;99.90
10247;DHT22;5168;47.854;7.944;2023-02-28T02:56:16;-5.80;99.90
10247;DHT22;5168;47.854;7.944;2023-02-28T02:58:44;-5.50;99.90
10247;DHT22;5168;47.854;7.944;2023-02-28T03:01:18;-5.30;99.90
10247;DHT22;5168;47.854;7.944;2023-02-28T03:03:56;-5.40;99.90
10247;DHT22;5168;47.854;7.944;2023-02-28T03:13:49;-5.50;99.90
10247;DHT22;5168;47.854;7.944;2023-02-28T03:16:33;-5.50;99.90
10247;DHT22;5168;47.854;7.944;2023-02-28T03:19:24;-5.50;99.90
10247;DHT22;5168;47.854;7.944;2023-02-28T03:24:32;-4.50;99.90
10247;DHT22;5168;47.854;7.944;2023-02-28T03:27:15;-5.40;99.90
10247;DHT22;5168;47.854;7.944;2023-02-28T03:29:46;-5.50;99.90
10247;DHT22;5168;47.854;7.944;2023-02-28T03:32:27;-5.40;99.90
10247;DHT22;5168;47.854;7.944;2023-02-28T03:35:45;-5.40;99.90
10247;DHT22;5168;47.854;7.944;2023-02-28T03:40:52;-5.40;99.90
10247;DHT22;5168;47.854;7.944;2023-02-28T03:43:25;-5.40;99.90
10247;DHT22;5168;47.854;7.944;2023-02-28T03:45:54;-5.50;99.90
10247;DHT22;5168;47.854;7.944;2023-02-28T03:48:26;-5.40;99.90
10247;DHT22;5168;47.854;7.944;2023-02-28T03:50:57;-5.40;99.90
10247;DHT22;5168;47.854;7.944;2023-02-28T03:53:37;-5.30;99.90
10247;DHT22;5168;47.854;7.944;2023-02-28T04:01:45;-5.50;99.90
10247;DHT22;5168;47.854;7.944;2023-02-28T04:04:13;-5.40;99.90
10247;DHT22;5168;47.854;7.944;2023-02-28T04:09:07;-5.30;99.90
10247;DHT22;5168;47.854;7.944;2023-02-28T04:11:38;-5.30;99.90
10247;DHT22;5168;47.854;7.944;2023-02-28T04:14:05;-5.40;99.90
10247;DHT22;5168;47.854;7.944;2023-02-28T04:16:32;-5.40;99.90
10247;DHT22;5168;47.854;7.944;2023-02-28T04:18:58;-5.10;99.90
10247;DHT22;5168;47.854;7.944;2023-02-28T04:21:48;-5.50;99.90
10247;DHT22;5168;47.854;7.944;2023-02-28T04:24:19;-5.50;99.90
10247;DHT22;5168;47.854;7.944;2023-02-28T04:26:47;-5.50;99.90
10247;DHT22;5168;47.854;7.944;2023-02-28T04:29:18;-5.90;99.90
10247;DHT22;5168;47.854;7.944;2023-02-28T04:34:10;-5.90;99.90
10247;DHT22;5168;47.854;7.944;2023-02-28T04:36:35;-5.40;99.90
10247;DHT22;5168;47.854;7.944;2023-02-28T04:46:21;-5.60;99.90
10247;DHT22;5168;47.854;7.944;2023-02-28T04:48:47;-5.70;99.90
10247;DHT22;5168;47.854;7.944;2023-02-28T04:51:14;-6.00;99.90
10247;DHT22;5168;47.854;7.944;2023-02-28T04:53:41;-4.80;99.90
10247;DHT22;5168;47.854;7.944;2023-02-28T04:56:10;-5.70;99.90
10247;DHT22;5168;47.854;7.944;2023-02-28T05:01:04;-5.40;99.90
10247;DHT22;5168;47.854;7.944;2023-02-28T05:05:56;-5.50;99.90
10247;DHT22;5168;47.854;7.944;2023-02-28T05:08:22;-6.10;99.90
10247;DHT22;5168;47.854;7.944;2023-02-28T05:10:47;-5.70;99.90
10247;DHT22;5168;47.854;7.944;2023-02-28T05:15:39;-5.60;99.90
10247;DHT22;5168;47.854;7.944;2023-02-28T05:18:04;-5.70;99.90
10247;DHT22;5168;47.854;7.944;2023-02-28T05:22:57;-5.60;99.90
10247;DHT22;5168;47.854;7.944;2023-02-28T05:27:49;-5.80;99.90
10247;DHT22;5168;47.854;7.944;2023-02-28T05:30:15;-5.60;99.90
10247;DHT22;5168;47.854;7.944;2023-02-28T05:32:41;-4.90;99.90
10247;DHT22;5168;47.854;7.944;2023-02-28T05:35:11;-5.50;99.90
10247;DHT22;5168;47.854;7.944;2023-02-28T05:37:37;-5.80;99.90
10247;DHT22;5168;47.854;7.944;2023-02-28T05:40:03;-5.40;99.90
10247;DHT22;5168;47.854;7.944;2023-02-28T05:42:35;-4.90;99.90
10247;DHT22;5168;47.854;7.944;2023-02-28T05:45:01;-5.50;99.90
10247;DHT22;5168;47.854;7.944;2023-02-28T05:52:18;-5.60;99.90
10247;DHT22;5168;47.854;7.944;2023-02-28T05:54:44;-5.60;99.90
10247;DHT22;5168;47.854;7.944;2023-02-28T06:02:05;-5.80;99.90
10247;DHT22;5168;47.854;7.944;2023-02-28T06:06:57;-5.60;99.90
10247;DHT22;5168;47.854;7.944;2023-02-28T06:09:23;-5.70;99.90
10247;DHT22;5168;47.854;7.944;2023-02-28T06:14:16;-5.70;99.90
10247;DHT22;5168;47.854;7.944;2023-02-28T06:16:42;-5.00;99.90
10247;DHT22;5168;47.854;7.944;2023-02-28T06:19:09;-5.30;99.90
10247;DHT22;5168;47.854;7.944;2023-02-28T06:21:35;-5.60;99.90
10247;DHT22;5168;47.854;7.944;2023-02-28T06:24:01;-5.60;99.90
10247;DHT22;5168;47.854;7.944;2023-02-28T06:26:27;-5.40;99.90
10247;DHT22;5168;47.854;7.944;2023-02-28T06:28:53;-5.60;99.90
10247;DHT22;5168;47.854;7.944;2023-02-28T06:31:19;-5.80;99.90
10247;DHT22;5168;47.854;7.944;2023-02-28T06:33:45;-5.20;99.90
10247;DHT22;5168;47.854;7.944;2023-02-28T06:36:13;-5.60;99.90
10247;DHT22;5168;47.854;7.944;2023-02-28T06:38:39;-5.40;99.90
10247;DHT22;5168;47.854;7.944;2023-02-28T06:41:06;-5.50;99.90
10247;DHT22;5168;47.854;7.944;2023-02-28T06:43:38;-5.30;99.90
10247;DHT22;5168;47.854;7.944;2023-02-28T06:46:07;-5.50;99.90
10247;DHT22;5168;47.854;7.944;2023-02-28T06:48:32;-5.30;99.90
10247;DHT22;5168;47.854;7.944;2023-02-28T06:51:16;-5.50;99.90
10247;DHT22;5168;47.854;7.944;2023-02-28T06:53:42;-4.40;99.90
10247;DHT22;5168;47.854;7.944;2023-02-28T06:56:11;-5.40;99.90
10247;DHT22;5168;47.854;7.944;2023-02-28T06:58:37;-5.30;99.90
10247;DHT22;5168;47.854;7.944;2023-02-28T07:08:23;-5.20;99.90
10247;DHT22;5168;47.854;7.944;2023-02-28T07:10:56;-4.90;99.90
10247;DHT22;5168;47.854;7.944;2023-02-28T07:13:22;-5.20;99.90
10247;DHT22;5168;47.854;7.944;2023-02-28T07:15:59;-4.80;99.90
10247;DHT22;5168;47.854;7.944;2023-02-28T07:18:25;-5.00;99.90
10247;DHT22;5168;47.854;7.944;2023-02-28T07:20:51;-4.20;99.90
10247;DHT22;5168;47.854;7.944;2023-02-28T07:23:17;-4.80;99.90
10247;DHT22;5168;47.854;7.944;2023-02-28T07:30:35;-4.00;99.90
10247;DHT22;5168;47.854;7.944;2023-02-28T07:33:00;-5.10;99.90
10247;DHT22;5168;47.854;7.944;2023-02-28T07:35:26;-4.70;99.90
10247;DHT22;5168;47.854;7.944;2023-02-28T07:37:51;-4.60;99.90
10247;DHT22;5168;47.854;7.944;2023-02-28T07:40:17;-4.70;99.90
10247;DHT22;5168;47.854;7.944;2023-02-28T07:42:43;-4.50;99.90
10247;DHT22;5168;47.854;7.944;2023-02-28T07:45:10;-4.50;99.90
10247;DHT22;5168;47.854;7.944;2023-02-28T07:47:38;-4.60;99.90
10247;DHT22;5168;47.854;7.944;2023-02-28T07:50:05;-4.60;99.90
10247;DHT22;5168;47.854;7.944;2023-02-28T07:54:57;-4.50;99.90
10247;DHT22;5168;47.854;7.944;2023-02-28T08:02:16;-4.40;99.90
10247;DHT22;5168;47.854;7.944;2023-02-28T08:04:42;-4.70;99.90
10247;DHT22;5168;47.854;7.944;2023-02-28T08:07:08;-4.10;99.90
10247;DHT22;5168;47.854;7.944;2023-02-28T08:09:39;-4.00;99.90
10247;DHT22;5168;47.854;7.944;2023-02-28T08:12:05;-3.80;99.90
10247;DHT22;5168;47.854;7.944;2023-02-28T08:14:31;-3.80;99.90
10247;DHT22;5168;47.854;7.944;2023-02-28T08:16:56;-4.00;99.90
10247;DHT22;5168;47.854;7.944;2023-02-28T08:24:14;-3.50;99.90
10247;DHT22;5168;47.854;7.944;2023-02-28T08:26:39;-3.30;99.90
10247;DHT22;5168;47.854;7.944;2023-02-28T08:29:05;-3.50;99.90
10247;DHT22;5168;47.854;7.944;2023-02-28T08:36:25;-3.00;99.90
10247;DHT22;5168;47.854;7.944;2023-02-28T08:41:16;-2.90;99.90
10247;DHT22;5168;47.854;7.944;2023-02-28T08:43:42;-3.20;99.90
10247;DHT22;5168;47.854;7.944;2023-02-28T08:46:11;-2.80;99.90
10247;DHT22;5168;47.854;7.944;2023-02-28T08:48:37;-3.10;99.90
10247;DHT22;5168;47.854;7.944;2023-02-28T08:51:11;-2.90;99.90
10247;DHT22;5168;47.854;7.944;2023-02-28T08:53:39;-2.80;99.90
10247;DHT22;5168;47.854;7.944;2023-02-28T08:56:07;-2.90;99.90
10247;DHT22;5168;47.854;7.944;2023-02-28T08:58:34;-3.00;99.90
10247;DHT22;5168;47.854;7.944;2023-02-28T09:01:00;-2.80;99.90
10247;DHT22;5168;47.854;7.944;2023-02-28T09:03:27;-2.60;99.90
10247;DHT22;5168;47.854;7.944;2023-02-28T09:05:58;-3.10;99.90
10247;DHT22;5168;47.854;7.944;2023-02-28T09:08:25;-2.90;99.90
10247;DHT22;5168;47.854;7.944;2023-02-28T09:10:50;-2.90;99.90
10247;DHT22;5168;47.854;7.944;2023-02-28T09:13:17;-3.40;99.90
10247;DHT22;5168;47.854;7.944;2023-02-28T09:15:43;-3.00;99.90
10247;DHT22;5168;47.854;7.944;2023-02-28T09:20:37;-2.80;99.90
10247;DHT22;5168;47.854;7.944;2023-02-28T09:27:55;-2.90;99.90
10247;DHT22;5168;47.854;7.944;2023-02-28T09:32:47;-2.60;99.90
10247;DHT22;5168;47.854;7.944;2023-02-28T09:35:17;-2.70;99.90
10247;DHT22;5168;47.854;7.944;2023-02-28T09:40:10;-2.30;99.90
10247;DHT22;5168;47.854;7.944;2023-02-28T09:45:07;-2.30;99.90
10247;DHT22;5168;47.854;7.944;2023-02-28T09:47:41;-2.20;99.90
10247;DHT22;5168;47.854;7.944;2023-02-28T09:50:23;-1.90;99.90
10247;DHT22;5168;47.854;7.944;2023-02-28T09:52:55;-1.80;99.90
10247;DHT22;5168;47.854;7.944;2023-02-28T09:55:42;-2.10;99.90
10247;DHT22;5168;47.854;7.944;2023-02-28T09:58:19;-2.20;99.90
10247;DHT22;5168;47.854;7.944;2023-02-28T10:00:49;-1.90;99.90
10247;DHT22;5168;47.854;7.944;2023-02-28T10:03:27;-1.80;99.90
10247;DHT22;5168;47.854;7.944;2023-02-28T10:06:06;-1.80;99.90
10247;DHT22;5168;47.854;7.944;2023-02-28T10:08:37;-1.70;99.90
10247;DHT22;5168;47.854;7.944;2023-02-28T10:11:09;-1.70;99.90
10247;DHT22;5168;47.854;7.944;2023-02-28T10:13:58;-1.30;99.90
10247;DHT22;5168;47.854;7.944;2023-02-28T10:16:40;-0.80;99.90
10247;DHT22;5168;47.854;7.944;2023-02-28T10:19:32;-0.30;99.90
10247;DHT22;5168;47.854;7.944;2023-02-28T10:22:08;-0.20;99.90
10247;DHT22;5168;47.854;7.944;2023-02-28T10:24:42;0.00;99.90
10247;DHT22;5168;47.854;7.944;2023-02-28T10:27:23;-0.10;99.90
10247;DHT22;5168;47.854;7.944;2023-02-28T10:29:51;0.10;99.90
10247;DHT22;5168;47.854;7.944;2023-02-28T10:32:32;-0.30;99.90
10247;DHT22;5168;47.854;7.944;2023-02-28T10:37:49;0.60;99.90
10247;DHT22;5168;47.854;7.944;2023-02-28T10:43:04;0.20;99.90
10247;DHT22;5168;47.854;7.944;2023-02-28T10:45:32;0.20;99.90
10247;DHT22;5168;47.854;7.944;2023-02-28T10:48:36;-0.20;99.90
10247;DHT22;5168;47.854;7.944;2023-02-28T10:51:03;0.20;99.90
10247;DHT22;5168;47.854;7.944;2023-02-28T10:53:35;0.00;99.90
10247;DHT22;5168;47.854;7.944;2023-02-28T10:56:12;0.00;99.90
10247;DHT22;5168;47.854;7.944;2023-02-28T10:58:44;0.90;99.90
10247;DHT22;5168;47.854;7.944;2023-02-28T11:01:18;0.30;99.90
10247;DHT22;5168;47.854;7.944;2023-02-28T11:06:25;0.00;99.90
10247;DHT22;5168;47.854;7.944;2023-02-28T11:08:57;0.00;99.90
10247;DHT22;5168;47.854;7.944;2023-02-28T11:11:26;0.00;99.90
10247;DHT22;5168;47.854;7.944;2023-02-28T11:13:54;-0.80;99.90
10247;DHT22;5168;47.854;7.944;2023-02-28T11:16:21;0.00;99.90
10247;DHT22;5168;47.854;7.944;2023-02-28T11:18:53;-0.60;99.90
10247;DHT22;5168;47.854;7.944;2023-02-28T11:23:49;-0.80;99.90
10247;DHT22;5168;47.854;7.944;2023-02-28T11:26:16;-0.60;99.90
10247;DHT22;5168;47.854;7.944;2023-02-28T11:29:12;0.00;99.90
10247;DHT22;5168;47.854;7.944;2023-02-28T11:31:38;0.40;99.90
10247;DHT22;5168;47.854;7.944;2023-02-28T11:34:25;0.40;99.90
10247;DHT22;5168;47.854;7.944;2023-02-28T11:47:39;0.00;99.90
10247;DHT22;5168;47.854;7.944;2023-02-28T11:55:51;3.50;99.90
10247;DHT22;5168;47.854;7.944;2023-02-28T11:58:41;4.90;99.90
10247;DHT22;5168;47.854;7.944;2023-02-28T12:23:29;9.10;96.50
10247;DHT22;5168;47.854;7.944;2023-02-28T12:26:06;9.40;95.90
10247;DHT22;5168;47.854;7.944;2023-02-28T12:28:40;9.40;95.30
10247;DHT22;5168;47.854;7.944;2023-02-28T12:31:14;8.40;94.80
10247;DHT22;5168;47.854;7.944;2023-02-28T12:33:47;7.70;95.90
10247;DHT22;5168;47.854;7.944;2023-02-28T12:36:17;7.50;96.30
10247;DHT22;5168;47.854;7.944;2023-02-28T12:39:11;7.50;94.80
10247;DHT22;5168;47.854;7.944;2023-02-28T12:41:48;7.00;97.10
10247;DHT22;5168;47.854;7.944;2023-02-28T12:44:23;6.80;96.70
10247;DHT22;5168;47.854;7.944;2023-02-28T12:46:55;6.30;98.50
10247;DHT22;5168;47.854;7.944;2023-02-28T12:49:33;5.90;99.00
10247;DHT22;5168;47.854;7.944;2023-02-28T12:52:01;5.70;99.60
10247;DHT22;5168;47.854;7.944;2023-02-28T12:54:54;5.40;99.90
10247;DHT22;5168;47.854;7.944;2023-02-28T12:57:36;5.80;99.90
10247;DHT22;5168;47.854;7.944;2023-02-28T13:00:15;6.30;99.90
10247;DHT22;5168;47.854;7.944;2023-02-28T13:11:06;8.30;96.20
10247;DHT22;5168;47.854;7.944;2023-02-28T13:18:33;8.20;93.80
10247;DHT22;5168;47.854;7.944;2023-02-28T13:21:01;8.30;96.30
10247;DHT22;5168;47.854;7.944;2023-02-28T13:29:37;8.80;95.80
10247;DHT22;5168;47.854;7.944;2023-02-28T13:39:52;8.30;92.40
10247;DHT22;5168;47.854;7.944;2023-02-28T13:55:34;7.20;93.20
10247;DHT22;5168;47.854;7.944;2023-02-28T13:58:24;7.40;95.10
10247;DHT22;5168;47.854;7.944;2023-02-28T14:07:28;7.60;93.50
10247;DHT22;5168;47.854;7.944;2023-02-28T14:10:04;7.90;95.30
10247;DHT22;5168;47.854;7.944;2023-02-28T14:15:46;7.70;95.00
10247;DHT22;5168;47.854;7.944;2023-02-28T14:21:01;7.60;95.20
10247;DHT22;5168;47.854;7.944;2023-02-28T14:26:29;8.10;94.60
10247;DHT22;5168;47.854;7.944;2023-02-28T14:31:58;7.40;94.10
10247;DHT22;5168;47.854;7.944;2023-02-28T14:34:36;7.20;92.90
10247;DHT22;5168;47.854;7.944;2023-02-28T14:37:03;6.70;94.40
10247;DHT22;5168;47.854;7.944;2023-02-28T14:39:30;6.70;93.40
10247;DHT22;5168;47.854;7.944;2023-02-28T14:41:57;6.30;95.00
10247;DHT22;5168;47.854;7.944;2023-02-28T14:44:28;5.40;94.00
10247;DHT22;5168;47.854;7.944;2023-02-28T14:46:56;5.70;94.30
10247;DHT22;5168;47.854;7.944;2023-02-28T14:49:35;5.70;95.00
10247;DHT22;5168;47.854;7.944;2023-02-28T14:52:22;5.00;97.00
10247;DHT22;5168;47.854;7.944;2023-02-28T14:55:05;4.50;98.40
10247;DHT22;5168;47.854;7.944;2023-02-28T14:57:38;4.00;97.20
10247;DHT22;5168;47.854;7.944;2023-02-28T15:00:07;3.60;99.60
10247;DHT22;5168;47.854;7.944;2023-02-28T15:02:37;3.20;98.20
10247;DHT22;5168;47.854;7.944;2023-02-28T15:12:32;1.70;99.90
10247;DHT22;5168;47.854;7.944;2023-02-28T15:14:58;1.50;99.90
10247;DHT22;5168;47.854;7.944;2023-02-28T15:17:24;1.20;99.90
10247;DHT22;5168;47.854;7.944;2023-02-28T15:19:52;1.10;99.90
10247;DHT22;5168;47.854;7.944;2023-02-28T15:22:33;0.70;99.90
10247;DHT22;5168;47.854;7.944;2023-02-28T15:24:59;0.80;99.90
10247;DHT22;5168;47.854;7.944;2023-02-28T15:27:27;0.60;99.90
10247;DHT22;5168;47.854;7.944;2023-02-28T15:30:07;0.70;99.90
10247;DHT22;5168;47.854;7.944;2023-02-28T15:32:37;0.50;99.90
10247;DHT22;5168;47.854;7.944;2023-02-28T15:37:56;0.20;99.90
10247;DHT22;5168;47.854;7.944;2023-02-28T15:40:41;0.10;99.90
10247;DHT22;5168;47.854;7.944;2023-02-28T15:43:18;-0.20;99.90
10247;DHT22;5168;47.854;7.944;2023-02-28T15:48:31;-0.60;99.90
10247;DHT22;5168;47.854;7.944;2023-02-28T15:51:18;-0.60;99.90
10247;DHT22;5168;47.854;7.944;2023-02-28T15:54:34;-0.70;99.90
10247;DHT22;5168;47.854;7.944;2023-02-28T15:56:45;-0.60;99.90
10247;DHT22;5168;47.854;7.944;2023-02-28T15:59:16;-0.70;99.90
10247;DHT22;5168;47.854;7.944;2023-02-28T16:04:19;-1.00;99.90
10247;DHT22;5168;47.854;7.944;2023-02-28T16:07:04;-0.80;99.90
10247;DHT22;5168;47.854;7.944;2023-02-28T16:12:00;-1.40;99.90
10247;DHT22;5168;47.854;7.944;2023-02-28T16:14:29;-1.30;99.90
10247;DHT22;5168;47.854;7.944;2023-02-28T16:17:04;-1.70;99.90
10247;DHT22;5168;47.854;7.944;2023-02-28T16:19:30;-1.60;99.90
10247;DHT22;5168;47.854;7.944;2023-02-28T16:21:56;-1.90;99.90
10247;DHT22;5168;47.854;7.944;2023-02-28T16:24:22;-2.00;99.90
10247;DHT22;5168;47.854;7.944;2023-02-28T16:26:49;-1.80;99.90
10247;DHT22;5168;47.854;7.944;2023-02-28T16:29:34;-1.70;99.90
10247;DHT22;5168;47.854;7.944;2023-02-28T16:32:01;-2.00;99.90
10247;DHT22;5168;47.854;7.944;2023-02-28T16:36:55;-1.90;99.90
10247;DHT22;5168;47.854;7.944;2023-02-28T16:39:20;-2.60;99.90
10247;DHT22;5168;47.854;7.944;2023-02-28T16:41:47;-1.30;99.90
10247;DHT22;5168;47.854;7.944;2023-02-28T16:44:34;-2.00;99.90
10247;DHT22;5168;47.854;7.944;2023-02-28T16:47:02;-2.20;99.90
10247;DHT22;5168;47.854;7.944;2023-02-28T16:54:19;-1.80;99.90
10247;DHT22;5168;47.854;7.944;2023-02-28T16:56:46;-1.80;99.90
10247;DHT22;5168;47.854;7.944;2023-02-28T16:59:13;-2.50;99.90
10247;DHT22;5168;47.854;7.944;2023-02-28T17:01:40;-1.80;99.90
10247;DHT22;5168;47.854;7.944;2023-02-28T17:04:05;-2.10;99.90
10247;DHT22;5168;47.854;7.944;2023-02-28T17:06:31;-2.00;99.90
10247;DHT22;5168;47.854;7.944;2023-02-28T17:08:58;-2.70;99.90
10247;DHT22;5168;47.854;7.944;2023-02-28T17:11:25;-2.10;99.90
10247;DHT22;5168;47.854;7.944;2023-02-28T17:13:51;-2.00;99.90
10247;DHT22;5168;47.854;7.944;2023-02-28T17:16:26;-1.50;99.90
10247;DHT22;5168;47.854;7.944;2023-02-28T17:18:55;-2.40;99.90
10247;DHT22;5168;47.854;7.944;2023-02-28T17:21:22;-2.40;99.90
10247;DHT22;5168;47.854;7.944;2023-02-28T17:26:15;-2.10;99.90
10247;DHT22;5168;47.854;7.944;2023-02-28T17:28:43;-1.70;99.90
10247;DHT22;5168;47.854;7.944;2023-02-28T17:31:09;-2.10;99.90
10247;DHT22;5168;47.854;7.944;2023-02-28T17:33:35;-2.40;99.90
10247;DHT22;5168;47.854;7.944;2023-02-28T17:36:00;-2.30;99.90
10247;DHT22;5168;47.854;7.944;2023-02-28T17:38:26;-2.70;99.90
10247;DHT22;5168;47.854;7.944;2023-02-28T17:43:28;-2.60;99.90
10247;DHT22;5168;47.854;7.944;2023-02-28T17:45:54;-2.60;99.90
10247;DHT22;5168;47.854;7.944;2023-02-28T17:48:20;-2.70;99.90
10247;DHT22;5168;47.854;7.944;2023-02-28T17:50:45;-2.00;99.90
10247;DHT22;5168;47.854;7.944;2023-02-28T17:53:11;-2.80;99.90
10247;DHT22;5168;47.854;7.944;2023-02-28T17:58:03;-2.70;99.90
10247;DHT22;5168;47.854;7.944;2023-02-28T18:00:29;-2.40;99.90
10247;DHT22;5168;47.854;7.944;2023-02-28T18:02:55;-2.60;99.90
10247;DHT22;5168;47.854;7.944;2023-02-28T18:05:20;-2.80;99.90
10247;DHT22;5168;47.854;7.944;2023-02-28T18:07:46;-2.90;99.90
10247;DHT22;5168;47.854;7.944;2023-02-28T18:10:18;-2.60;99.90
10247;DHT22;5168;47.854;7.944;2023-02-28T18:12:49;-2.70;99.90
10247;DHT22;5168;47.854;7.944;2023-02-28T18:15:17;-2.70;99.90
10247;DHT22;5168;47.854;7.944;2023-02-28T18:17:43;-2.90;99.90
10247;DHT22;5168;47.854;7.944;2023-02-28T18:20:09;-2.80;99.90
10247;DHT22;5168;47.854;7.944;2023-02-28T18:22:36;-2.80;99.90
10247;DHT22;5168;47.854;7.944;2023-02-28T18:25:04;-2.70;99.90
10247;DHT22;5168;47.854;7.944;2023-02-28T18:29:56;-2.70;99.90
10247;DHT22;5168;47.854;7.944;2023-02-28T18:32:21;-2.80;99.90
10247;DHT22;5168;47.854;7.944;2023-02-28T18:34:47;-2.60;99.90
10247;DHT22;5168;47.854;7.944;2023-02-28T18:39:40;-2.50;99.90
10247;DHT22;5168;47.854;7.944;2023-02-28T18:42:06;-2.90;99.90
10247;DHT22;5168;47.854;7.944;2023-02-28T18:44:33;-2.90;99.90
10247;DHT22;5168;47.854;7.944;2023-02-28T18:46:58;-2.60;99.90
10247;DHT22;5168;47.854;7.944;2023-02-28T18:49:24;-2.80;99.90
10247;DHT22;5168;47.854;7.944;2023-02-28T18:56:43;-2.60;99.90
10247;DHT22;5168;47.854;7.944;2023-02-28T18:59:09;-2.30;99.90
10247;DHT22;5168;47.854;7.944;2023-02-28T19:04:02;-2.80;99.90
10247;DHT22;5168;47.854;7.944;2023-02-28T19:06:29;-2.90;99.90
10247;DHT22;5168;47.854;7.944;2023-02-28T19:08:56;-2.90;99.90
10247;DHT22;5168;47.854;7.944;2023-02-28T19:11:23;-3.10;99.90
10247;DHT22;5168;47.854;7.944;2023-02-28T19:13:49;-2.50;99.90
10247;DHT22;5168;47.854;7.944;2023-02-28T19:16:16;-3.00;99.90
10247;DHT22;5168;47.854;7.944;2023-02-28T19:18:42;-3.20;99.90
10247;DHT22;5168;47.854;7.944;2023-02-28T19:21:10;-3.10;99.90
10247;DHT22;5168;47.854;7.944;2023-02-28T19:23:37;-2.20;99.90
10247;DHT22;5168;47.854;7.944;2023-02-28T19:28:32;-2.80;99.90
10247;DHT22;5168;47.854;7.944;2023-02-28T19:30:57;-2.90;99.90
10247;DHT22;5168;47.854;7.944;2023-02-28T19:35:49;-3.70;99.90
10247;DHT22;5168;47.854;7.944;2023-02-28T19:38:16;-3.20;99.90
10247;DHT22;5168;47.854;7.944;2023-02-28T19:43:08;-3.10;99.90
10247;DHT22;5168;47.854;7.944;2023-02-28T19:45:35;-3.20;99.90
10247;DHT22;5168;47.854;7.944;2023-02-28T19:50:27;-3.00;99.90
10247;DHT22;5168;47.854;7.944;2023-02-28T19:55:19;-2.80;99.90
10247;DHT22;5168;47.854;7.944;2023-02-28T19:57:44;-2.80;99.90
10247;DHT22;5168;47.854;7.944;2023-02-28T20:00:12;-3.30;99.90
10247;DHT22;5168;47.854;7.944;2023-02-28T20:02:38;-2.80;99.90
10247;DHT22;5168;47.854;7.944;2023-02-28T20:07:30;-3.10;99.90
10247;DHT22;5168;47.854;7.944;2023-02-28T20:09:56;-3.00;99.90
10247;DHT22;5168;47.854;7.944;2023-02-28T20:12:22;-3.00;99.90
10247;DHT22;5168;47.854;7.944;2023-02-28T20:14:49;-2.70;99.90
10247;DHT22;5168;47.854;7.944;2023-02-28T20:19:41;-3.10;99.90
10247;DHT22;5168;47.854;7.944;2023-02-28T20:39:10;-3.20;99.90
10247;DHT22;5168;47.854;7.944;2023-02-28T20:44:02;-2.80;99.90
10247;DHT22;5168;47.854;7.944;2023-02-28T20:46:28;-3.00;99.90
10247;DHT22;5168;47.854;7.944;2023-02-28T20:53:47;-3.10;99.90
10247;DHT22;5168;47.854;7.944;2023-02-28T20:56:18;-2.80;99.90
10247;DHT22;5168;47.854;7.944;2023-02-28T20:58:45;-3.10;99.90
10247;DHT22;5168;47.854;7.944;2023-02-28T21:03:41;-3.00;99.90
10247;DHT22;5168;47.854;7.944;2023-02-28T21:06:07;-2.90;99.90
10247;DHT22;5168;47.854;7.944;2023-02-28T21:08:34;-2.90;99.90
10247;DHT22;5168;47.854;7.944;2023-02-28T21:11:00;-2.80;99.90
10247;DHT22;5168;47.854;7.944;2023-02-28T21:13:25;-3.00;99.90
10247;DHT22;5168;47.854;7.944;2023-02-28T21:18:17;-3.00;99.90
10247;DHT22;5168;47.854;7.944;2023-02-28T21:20:43;-3.00;99.90
10247;DHT22;5168;47.854;7.944;2023-02-28T21:23:09;-3.10;99.90
10247;DHT22;5168;47.854;7.944;2023-02-28T21:28:00;-3.10;99.90
10247;DHT22;5168;47.854;7.944;2023-02-28T21:30:26;-3.10;99.90
10247;DHT22;5168;47.854;7.944;2023-02-28T21:32:51;-3.30;99.90
10247;DHT22;5168;47.854;7.944;2023-02-28T21:40:09;-3.10;99.90
10247;DHT22;5168;47.854;7.944;2023-02-28T21:42:35;-3.30;99.90
10247;DHT22;5168;47.854;7.944;2023-02-28T21:45:00;-3.60;99.90
10247;DHT22;5168;47.854;7.944;2023-02-28T21:47:28;-3.10;99.90
10247;DHT22;5168;47.854;7.944;2023-02-28T21:49:57;-3.30;99.90
10247;DHT22;5168;47.854;7.944;2023-02-28T21:52:22;-3.30;99.90
10247;DHT22;5168;47.854;7.944;2023-02-28T21:57:14;-3.40;99.90
10247;DHT22;5168;47.854;7.944;2023-02-28T21:59:43;-3.20;99.90
10247;DHT22;5168;47.854;7.944;2023-02-28T22:02:10;-3.20;99.90
10247;DHT22;5168;47.854;7.944;2023-02-28T22:04:36;-3.00;99.90
10247;DHT22;5168;47.854;7.944;2023-02-28T22:07:02;-3.10;99.90